createdAt,value
2023-01-20T00:01:26.680Z,5.83
2023-01-20T00:06:31.357Z,6.30
2023-01-20T00:11:34.852Z,6.10
2023-01-20T00:16:38.441Z,6.20
2023-01-20T00:21:43.654Z,5.77
2023-01-20T00:26:46.999Z,6.43
2023-01-20T00:31:50.310Z,5.90
2023-01-20T00:36:54.985Z,4.83
2023-01-20T00:41:59.608Z,5.20
2023-01-20T00:47:02.918Z,6.00
2023-01-20T00:52:08.183Z,5.03
2023-01-20T00:57:11.519Z,5.97
2023-01-20T01:02:14.772Z,6.10
2023-01-20T01:07:20.196Z,5.37
2023-01-20T01:12:23.452Z,6.20
2023-01-20T01:17:26.797Z,5.63
2023-01-20T01:22:33.350Z,6.83
2023-01-20T01:27:36.584Z,6.53
2023-01-20T01:32:39.949Z,7.03
2023-01-20T01:37:44.750Z,6.67
2023-01-20T01:42:48.032Z,6.30
2023-01-20T01:47:57.125Z,6.87
2023-01-20T01:53:02.035Z,6.23
2023-01-20T01:58:08.080Z,6.17
2023-01-20T02:03:12.664Z,7.60
2023-01-20T02:08:17.432Z,7.27
2023-01-20T02:13:20.886Z,7.10
2023-01-20T02:19:03.047Z,6.30
2023-01-20T02:24:39.561Z,7.87
2023-01-20T02:30:20.781Z,6.93
2023-01-20T02:35:30.795Z,7.03
2023-01-20T02:40:54.739Z,6.23
2023-01-20T02:46:04.742Z,6.53
2023-01-20T02:51:14.086Z,6.37
2023-01-20T02:56:20.211Z,6.40
2023-01-20T03:01:28.114Z,6.43
2023-01-20T03:06:36.143Z,6.50
2023-01-20T03:11:44.774Z,6.10
2023-01-20T03:16:50.405Z,6.13
2023-01-20T03:21:55.058Z,6.10
2023-01-20T03:26:59.216Z,6.40
2023-01-20T03:32:04.829Z,6.67
2023-01-20T03:37:11.586Z,6.10
2023-01-20T03:42:19.701Z,5.67
2023-01-20T03:47:36.023Z,6.47
2023-01-20T03:58:12.095Z,5.63
2023-01-20T04:03:18.318Z,5.73
2023-01-20T04:08:27.120Z,5.73
2023-01-20T04:13:30.441Z,5.90
2023-01-20T04:18:33.782Z,5.47
2023-01-20T04:23:45.220Z,5.80
2023-01-20T04:28:48.507Z,5.50
2023-01-20T04:33:51.757Z,5.47
2023-01-20T04:38:56.385Z,6.00
2023-01-20T04:43:59.847Z,5.93
2023-01-20T04:49:03.345Z,5.07
2023-01-20T04:54:08.176Z,6.17
2023-01-20T04:59:11.675Z,5.07
2023-01-20T05:04:14.876Z,6.17
2023-01-20T05:09:19.484Z,5.47
2023-01-20T05:14:22.687Z,5.67
2023-01-20T05:19:26.052Z,5.67
2023-01-20T05:24:30.913Z,6.57
2023-01-20T05:29:34.105Z,6.70
2023-01-20T05:34:37.412Z,7.00
2023-01-20T05:39:42.007Z,6.17
2023-01-20T05:44:45.267Z,6.50
2023-01-20T05:49:48.735Z,5.43
2023-01-20T05:54:53.373Z,5.40
2023-01-20T06:00:08.621Z,5.37
2023-01-20T06:10:30.555Z,4.73
2023-01-20T06:15:34.216Z,5.70
2023-01-20T06:20:37.448Z,5.97
2023-01-20T06:26:01.564Z,5.40
2023-01-20T06:31:09.486Z,6.47
2023-01-20T06:36:17.077Z,7.07
2023-01-20T06:41:38.124Z,5.90
2023-01-20T06:46:41.529Z,6.23
2023-01-20T06:51:44.940Z,6.53
2023-01-20T06:56:49.521Z,6.40
2023-01-20T07:01:52.789Z,5.50
2023-01-20T07:06:56.473Z,6.37
2023-01-20T07:12:01.181Z,7.07
2023-01-20T07:17:04.448Z,6.20
2023-01-20T07:22:07.732Z,5.93
2023-01-20T07:27:12.470Z,5.40
2023-01-20T07:32:15.718Z,5.77
2023-01-20T07:37:19.217Z,5.50
2023-01-20T07:42:23.909Z,5.90
2023-01-20T07:47:27.281Z,6.37
2023-01-20T07:53:20.737Z,6.10
2023-01-20T07:58:25.543Z,6.33
2023-01-20T08:03:28.866Z,6.00
2023-01-20T08:08:32.795Z,6.80
2023-01-20T08:13:37.492Z,5.93
2023-01-20T08:18:41.601Z,5.73
2023-01-20T08:23:44.913Z,7.07
2023-01-20T08:29:14.937Z,7.13
2023-01-20T08:34:18.868Z,6.80
2023-01-20T08:39:23.120Z,6.37
2023-01-20T08:44:27.840Z,6.37
2023-01-20T08:49:31.339Z,5.70
2023-01-20T08:54:35.123Z,5.73
2023-01-20T08:59:40.010Z,5.77
2023-01-20T09:04:43.216Z,5.07
2023-01-20T09:09:46.592Z,5.60
2023-01-20T09:14:51.205Z,5.27
2023-01-20T09:19:54.661Z,5.27
2023-01-20T09:24:58.031Z,5.43
2023-01-20T09:30:02.780Z,5.60
2023-01-20T09:35:07.265Z,5.50
2023-01-20T09:40:34.961Z,5.80
2023-01-20T09:45:45.573Z,5.50
2023-01-20T09:51:13.421Z,6.43
2023-01-20T09:56:19.271Z,4.57
2023-01-20T10:01:30.847Z,4.83
2023-01-20T10:06:38.563Z,5.10
2023-01-20T10:11:44.139Z,4.70
2023-01-20T10:16:54.854Z,4.40
2023-01-20T10:22:06.038Z,3.97
2023-01-20T10:27:09.509Z,4.50
2023-01-20T10:33:03.181Z,4.22
2023-01-20T10:38:10.687Z,4.35
2023-01-20T10:43:15.906Z,4.22
2023-01-20T10:48:35.749Z,4.15
2023-01-20T10:53:52.150Z,3.73
2023-01-20T10:58:57.827Z,4.83
2023-01-20T11:04:01.148Z,5.40
2023-01-20T11:09:21.283Z,5.30
2023-01-20T11:14:26.256Z,4.40
2023-01-20T11:19:47.059Z,3.77
2023-01-20T11:24:56.066Z,3.90
2023-01-20T11:30:02.024Z,5.00
2023-01-20T11:35:25.677Z,4.70
2023-01-20T11:40:30.455Z,4.43
2023-01-20T11:45:35.680Z,4.33
2023-01-20T11:50:41.989Z,4.87
2023-01-20T11:55:52.517Z,4.33
2023-01-20T12:01:03.112Z,4.30
2023-01-20T12:06:15.192Z,3.67
2023-01-20T12:11:24.665Z,3.63
2023-01-20T12:16:31.514Z,3.57
2023-01-20T12:21:41.863Z,3.10
2023-01-20T12:26:46.567Z,3.43
2023-01-20T12:31:50.900Z,3.97
2023-01-20T12:37:08.854Z,3.40
2023-01-20T12:42:40.899Z,3.00
2023-01-20T12:47:56.239Z,3.80
2023-01-20T12:53:14.343Z,3.10
2023-01-20T12:58:34.408Z,2.70
2023-01-20T13:09:01.277Z,2.10
2023-01-20T13:14:15.535Z,2.23
2023-01-20T13:19:25.617Z,1.88
2023-01-20T13:24:30.369Z,1.95
2023-01-20T13:29:44.828Z,2.05
2023-01-20T13:34:48.192Z,1.90
2023-01-20T13:39:54.523Z,1.70
2023-01-20T13:45:18.924Z,1.60
2023-01-20T13:50:24.800Z,1.45
2023-01-20T13:55:50.972Z,1.75
2023-01-20T14:00:56.226Z,2.00
2023-01-20T14:06:01.694Z,1.25
2023-01-20T14:11:11.566Z,1.48
2023-01-20T14:16:30.632Z,1.52
2023-01-20T14:27:21.762Z,1.95
2023-01-20T14:32:28.484Z,1.67
2023-01-20T14:37:34.397Z,2.45
2023-01-20T14:48:51.816Z,2.35
2023-01-20T14:54:34.965Z,2.30
2023-01-20T14:59:40.240Z,2.05
2023-01-20T15:04:44.539Z,2.30
2023-01-20T15:09:55.098Z,2.10
2023-01-20T15:15:29.673Z,2.00
2023-01-20T15:20:34.807Z,1.50
2023-01-20T15:25:38.636Z,1.80
2023-01-20T15:30:46.308Z,2.00
2023-01-20T15:35:55.657Z,1.80
2023-01-20T15:41:06.489Z,2.37
2023-01-20T15:46:12.547Z,2.20
2023-01-20T15:51:17.733Z,2.40
2023-01-20T15:56:23.052Z,2.40
2023-01-20T16:01:29.222Z,1.30
2023-01-20T16:06:34.003Z,1.83
2023-01-20T16:11:38.254Z,1.77
2023-01-20T16:16:42.932Z,1.50
2023-01-20T16:21:46.236Z,1.67
2023-01-20T16:26:49.479Z,1.70
2023-01-20T16:31:54.348Z,1.57
2023-01-20T16:36:57.643Z,1.47
2023-01-20T16:42:00.886Z,1.90
2023-01-20T16:47:05.644Z,1.40
2023-01-20T16:52:09.016Z,1.60
2023-01-20T16:57:12.328Z,1.60
2023-01-20T17:02:17.496Z,1.40
2023-01-20T17:07:20.730Z,1.40
2023-01-20T17:12:23.941Z,1.57
2023-01-20T17:17:28.830Z,1.70
2023-01-20T17:22:32.738Z,2.03
2023-01-20T17:27:35.947Z,2.37
2023-01-20T17:32:40.438Z,2.83
2023-01-20T17:37:43.648Z,2.63
2023-01-20T17:42:46.859Z,3.37
2023-01-20T17:47:53.144Z,3.47
2023-01-20T17:52:59.438Z,3.63
2023-01-20T17:58:02.804Z,3.87
2023-01-20T18:03:09.737Z,5.00
2023-01-20T18:08:13.731Z,3.70
2023-01-20T18:13:17.077Z,4.07
2023-01-20T18:18:21.782Z,5.00
2023-01-20T18:23:25.081Z,5.37
2023-01-20T18:28:30.821Z,5.07
2023-01-20T18:33:38.325Z,4.53
2023-01-20T18:38:43.472Z,5.03
2023-01-20T18:43:47.264Z,4.43
2023-01-20T18:48:56.528Z,4.30
2023-01-20T18:54:01.139Z,4.70
2023-01-20T18:59:06.734Z,4.10
2023-01-20T19:04:13.544Z,4.60
2023-01-20T19:09:17.495Z,3.57
2023-01-20T19:14:20.805Z,4.00
2023-01-20T19:19:27.545Z,3.97
2023-01-20T19:24:30.840Z,3.23
2023-01-20T19:29:34.113Z,4.13
2023-01-20T19:34:39.340Z,3.83
2023-01-20T19:39:42.658Z,3.97
2023-01-20T19:44:46.042Z,3.50
2023-01-20T19:49:50.881Z,4.03
2023-01-20T19:54:54.197Z,3.77
2023-01-20T19:59:57.472Z,4.33
2023-01-20T20:05:02.031Z,4.30
2023-01-20T20:10:06.080Z,4.20
2023-01-20T20:15:09.947Z,3.93
2023-01-20T20:20:16.029Z,3.60
2023-01-20T20:25:19.408Z,5.17
2023-01-20T20:30:24.155Z,4.93
2023-01-20T20:35:28.735Z,4.53
2023-01-20T20:40:32.049Z,3.93
2023-01-20T20:45:35.366Z,3.60
2023-01-20T20:50:40.025Z,3.97
2023-01-20T20:55:43.608Z,3.87
2023-01-20T21:00:50.854Z,6.03
2023-01-20T21:05:55.559Z,5.63
2023-01-20T21:11:00.880Z,6.03
2023-01-20T21:16:09.684Z,5.37
2023-01-20T21:21:19.330Z,4.83
2023-01-20T21:26:23.367Z,4.70
2023-01-20T21:31:27.180Z,4.33
2023-01-20T21:36:34.028Z,4.20
2023-01-20T21:41:37.475Z,4.47
2023-01-20T21:46:41.599Z,3.70
2023-01-20T21:52:03.920Z,4.13
2023-01-20T21:57:07.134Z,3.63
2023-01-20T22:02:13.239Z,3.90
2023-01-20T22:07:17.962Z,4.33
2023-01-20T22:12:21.311Z,5.10
2023-01-20T22:17:24.930Z,5.27
2023-01-20T22:22:33.838Z,5.23
2023-01-20T22:27:37.112Z,5.43
2023-01-20T22:32:40.457Z,4.27
2023-01-20T22:37:45.163Z,5.33
2023-01-20T22:42:48.746Z,4.80
2023-01-20T22:47:52.104Z,4.97
2023-01-20T22:52:56.908Z,4.73
2023-01-20T22:58:00.331Z,5.53
2023-01-20T23:03:03.554Z,5.00
2023-01-20T23:08:08.214Z,5.27
2023-01-20T23:13:11.470Z,5.37
2023-01-20T23:18:14.756Z,4.40
2023-01-20T23:23:21.095Z,4.73
2023-01-20T23:28:24.362Z,5.03
2023-01-20T23:33:27.602Z,5.20
2023-01-20T23:38:32.513Z,6.30
2023-01-20T23:43:35.791Z,5.27
2023-01-20T23:48:40.661Z,4.80
2023-01-20T23:53:45.455Z,5.80
2023-01-20T23:58:49.759Z,5.47
